createdAt,value
2022-10-10T03:01:35.610Z,4.27
2022-10-10T03:04:02.814Z,4.00
2022-10-10T03:06:30.221Z,3.77
2022-10-10T03:08:57.357Z,3.67
2022-10-10T03:11:24.590Z,3.97
2022-10-10T03:13:51.735Z,3.60
2022-10-10T03:16:18.912Z,4.50
2022-10-10T03:18:46.107Z,4.27
2022-10-10T03:21:13.371Z,4.17
2022-10-10T03:23:41.487Z,5.38
2022-10-10T03:26:08.632Z,4.70
2022-10-10T03:28:37.402Z,4.70
2022-10-10T03:31:04.830Z,4.13
2022-10-10T03:33:32.141Z,4.37
2022-10-10T03:35:59.236Z,4.40
2022-10-10T03:38:26.435Z,4.00
2022-10-10T03:40:53.801Z,4.50
2022-10-10T03:43:21.013Z,4.60
2022-10-10T03:45:48.301Z,5.40
2022-10-10T03:48:15.680Z,4.85
2022-10-10T03:50:42.851Z,4.27
2022-10-10T03:53:10.305Z,4.38
2022-10-10T03:55:40.503Z,4.15
2022-10-10T03:58:08.864Z,4.60
2022-10-10T04:00:36.365Z,4.22
2022-10-10T04:03:06.699Z,4.87
2022-10-10T04:05:38.309Z,4.40
2022-10-10T04:08:05.987Z,4.40
2022-10-10T04:10:33.143Z,4.70
2022-10-10T04:13:00.333Z,4.38
2022-10-10T04:15:27.549Z,4.40
2022-10-10T04:17:54.694Z,4.60
2022-10-10T04:20:21.965Z,4.15
2022-10-10T04:22:49.599Z,4.20
2022-10-10T04:25:17.173Z,4.25
2022-10-10T04:27:44.380Z,3.97
2022-10-10T04:30:12.130Z,4.10
2022-10-10T04:32:39.322Z,4.93
2022-10-10T04:35:06.760Z,3.60
2022-10-10T04:37:34.830Z,3.95
2022-10-10T04:40:02.080Z,4.95
2022-10-10T04:42:29.294Z,4.85
2022-10-10T04:44:56.504Z,3.70
2022-10-10T04:47:23.941Z,4.28
2022-10-10T04:49:51.126Z,4.30
2022-10-10T04:52:18.252Z,3.92
2022-10-10T04:54:45.556Z,4.47
2022-10-10T04:57:12.730Z,5.20
2022-10-10T04:59:39.889Z,4.65
2022-10-10T05:02:07.130Z,5.15
2022-10-10T05:04:34.262Z,4.60
2022-10-10T05:07:01.456Z,3.97
2022-10-10T05:09:28.667Z,5.90
2022-10-10T05:11:55.847Z,7.80
2022-10-10T05:14:23.029Z,8.40
2022-10-10T05:16:50.247Z,6.80
2022-10-10T05:19:17.465Z,7.70
2022-10-10T05:21:44.749Z,7.43
2022-10-10T05:24:11.930Z,6.10
2022-10-10T05:26:43.081Z,6.32
2022-10-10T05:29:10.563Z,5.85
2022-10-10T05:31:37.721Z,4.97
2022-10-10T05:34:04.871Z,5.35
2022-10-10T05:36:32.076Z,5.50
2022-10-10T05:39:00.175Z,5.68
2022-10-10T05:41:27.516Z,5.28
2022-10-10T05:43:54.641Z,5.63
2022-10-10T05:46:24.601Z,6.05
2022-10-10T05:48:53.220Z,5.22
2022-10-10T05:51:21.145Z,5.13
2022-10-10T05:53:48.643Z,5.68
2022-10-10T05:56:17.109Z,5.00
2022-10-10T05:58:44.832Z,5.72
2022-10-10T06:01:12.050Z,6.32
2022-10-10T06:03:39.282Z,6.97
2022-10-10T06:06:07.276Z,5.88
2022-10-10T06:08:34.923Z,5.40
2022-10-10T06:11:11.198Z,5.97
2022-10-10T06:13:39.122Z,7.75
2022-10-10T06:16:06.374Z,6.13
2022-10-10T06:18:33.548Z,5.80
2022-10-10T06:21:07.379Z,7.25
2022-10-10T06:23:34.838Z,7.88
2022-10-10T06:26:02.027Z,8.90
2022-10-10T06:28:29.257Z,7.68
2022-10-10T06:31:04.489Z,8.13
2022-10-10T06:33:32.673Z,6.78
2022-10-10T06:36:03.529Z,5.95
2022-10-10T06:38:30.727Z,6.43
2022-10-10T06:41:02.712Z,7.70
2022-10-10T06:43:29.968Z,9.05
2022-10-10T06:45:57.561Z,7.85
2022-10-10T06:48:25.004Z,6.85
2022-10-10T06:51:00.183Z,6.25
2022-10-10T06:53:27.909Z,6.68
2022-10-10T06:55:55.677Z,5.82
2022-10-10T06:58:23.994Z,5.03
2022-10-10T07:00:57.267Z,5.25
2022-10-10T07:03:24.497Z,6.32
2022-10-10T07:05:53.884Z,5.32
2022-10-10T07:08:21.594Z,5.03
2022-10-10T07:10:48.839Z,5.93
2022-10-10T07:13:16.458Z,5.80
2022-10-10T07:15:44.097Z,5.80
2022-10-10T07:18:11.796Z,5.70
2022-10-10T07:20:39.995Z,5.50
2022-10-10T07:23:07.162Z,6.35
2022-10-10T07:25:34.815Z,5.40
2022-10-10T07:28:01.990Z,5.63
2022-10-10T07:30:29.139Z,5.82
2022-10-10T07:32:56.358Z,5.60
2022-10-10T07:35:26.207Z,5.60
2022-10-10T07:37:55.781Z,5.90
2022-10-10T07:40:23.454Z,4.70
2022-10-10T07:42:51.031Z,5.53
2022-10-10T07:45:18.441Z,6.20
2022-10-10T07:47:45.633Z,5.38
2022-10-10T07:50:13.704Z,5.65
2022-10-10T07:52:41.029Z,6.03
2022-10-10T07:55:09.253Z,6.82
2022-10-10T07:57:37.011Z,4.50
2022-10-10T08:00:09.059Z,5.55
2022-10-10T08:02:36.273Z,5.40
2022-10-10T08:05:03.653Z,5.50
2022-10-10T08:07:31.081Z,5.07
2022-10-10T08:09:58.549Z,4.82
2022-10-10T08:12:25.851Z,6.20
2022-10-10T08:14:52.996Z,5.43
2022-10-10T08:17:20.299Z,5.70
2022-10-10T08:19:47.424Z,4.68
2022-10-10T08:22:14.581Z,5.40
2022-10-10T08:24:41.849Z,4.75
2022-10-10T08:27:08.970Z,5.43
2022-10-10T08:29:36.122Z,4.78
2022-10-10T08:32:03.318Z,4.95
2022-10-10T08:34:30.529Z,4.63
2022-10-10T08:36:57.757Z,5.05
2022-10-10T08:39:25.012Z,5.32
2022-10-10T08:41:55.209Z,4.85
2022-10-10T08:44:27.527Z,4.57
2022-10-10T08:47:02.405Z,5.22
2022-10-10T08:50:01.823Z,4.70
2022-10-10T08:52:38.508Z,5.20
2022-10-10T08:55:33.968Z,5.38
2022-10-10T08:58:24.014Z,4.90
2022-10-10T09:01:15.712Z,4.95
2022-10-10T09:03:54.917Z,5.75
2022-10-10T09:06:52.846Z,4.45
2022-10-10T09:09:37.922Z,5.28
2022-10-10T09:12:27.598Z,4.90
2022-10-10T09:15:18.950Z,8.25
2022-10-10T09:17:55.840Z,4.53
2022-10-10T09:20:49.942Z,4.07
2022-10-10T09:23:36.848Z,4.03
2022-10-10T09:26:12.648Z,3.90
2022-10-10T09:28:48.997Z,3.90
2022-10-10T09:31:26.197Z,3.05
2022-10-10T09:34:16.256Z,3.58
2022-10-10T09:36:45.509Z,4.38
2022-10-10T09:39:35.374Z,3.72
2022-10-10T09:42:05.308Z,3.90
2022-10-10T09:44:32.921Z,3.33
2022-10-10T09:47:00.612Z,3.33
2022-10-10T09:49:29.526Z,3.15
2022-10-10T09:51:56.871Z,3.15
2022-10-10T09:54:25.084Z,3.53
2022-10-10T09:56:57.551Z,3.45
2022-10-10T09:59:45.964Z,3.53
2022-10-10T10:02:26.176Z,3.55
2022-10-10T10:04:54.742Z,3.42
2022-10-10T10:07:31.588Z,3.60
2022-10-10T10:10:10.767Z,3.03
2022-10-10T10:12:41.133Z,3.25
2022-10-10T10:15:37.065Z,3.65
2022-10-10T10:18:20.823Z,3.22
2022-10-10T10:20:50.227Z,3.75
2022-10-10T10:23:34.991Z,3.10
2022-10-10T10:26:06.373Z,3.55
2022-10-10T10:28:43.679Z,3.22
2022-10-10T10:31:19.479Z,3.28
2022-10-10T10:33:52.124Z,3.17
2022-10-10T10:36:28.817Z,3.15
2022-10-10T10:39:21.733Z,2.78
2022-10-10T10:41:48.832Z,3.00
2022-10-10T10:44:36.966Z,3.35
2022-10-10T10:47:34.384Z,3.15
2022-10-10T10:50:22.777Z,3.10
2022-10-10T10:53:16.773Z,3.00
2022-10-10T10:55:56.273Z,3.00
2022-10-10T11:02:43.693Z,2.75
2022-10-10T11:05:32.679Z,2.67
2022-10-10T11:08:24.060Z,2.50
2022-10-10T11:11:33.048Z,2.97
2022-10-10T11:14:02.851Z,2.80
2022-10-10T11:16:50.626Z,2.60
2022-10-10T11:19:27.516Z,2.42
2022-10-10T11:22:07.418Z,2.47
2022-10-10T11:24:51.331Z,2.60
2022-10-10T11:27:38.781Z,2.42
2022-10-10T11:30:14.473Z,2.55
2022-10-10T11:32:51.727Z,2.67
2022-10-10T11:35:43.042Z,2.28
2022-10-10T11:38:15.870Z,2.42
2022-10-10T11:40:46.012Z,2.30
2022-10-10T11:43:19.966Z,2.45
2022-10-10T11:45:55.013Z,3.55
2022-10-10T11:48:51.208Z,2.28
2022-10-10T11:51:27.504Z,2.55
2022-10-10T11:54:00.001Z,2.55
2022-10-10T11:56:34.647Z,2.55
2022-10-10T11:59:13.863Z,2.72
2022-10-10T12:01:50.319Z,2.35
2022-10-10T12:04:17.848Z,2.65
2022-10-10T12:06:52.735Z,2.17
2022-10-10T12:09:33.159Z,2.30
2022-10-10T12:12:06.087Z,2.67
2022-10-10T12:14:37.798Z,2.58
2022-10-10T12:17:05.531Z,2.60
2022-10-10T12:19:32.762Z,2.40
2022-10-10T12:22:04.062Z,2.60
2022-10-10T12:24:34.062Z,2.95
2022-10-10T12:27:01.151Z,2.72
2022-10-10T12:29:46.806Z,3.08
2022-10-10T12:32:20.272Z,2.63
2022-10-10T12:34:50.248Z,2.75
2022-10-10T12:37:21.114Z,2.60
2022-10-10T12:40:08.541Z,2.70
2022-10-10T12:42:47.567Z,2.50
2022-10-10T12:45:29.958Z,2.50
2022-10-10T12:48:21.481Z,2.88
2022-10-10T12:51:00.039Z,3.00
2022-10-10T12:53:31.294Z,2.83
2022-10-10T12:56:01.338Z,3.25
2022-10-10T12:58:30.891Z,3.25
2022-10-10T13:01:06.724Z,2.65
2022-10-10T13:03:42.576Z,2.70
2022-10-10T13:06:34.211Z,2.50
2022-10-10T13:09:03.847Z,2.58
2022-10-10T13:11:31.050Z,2.40
2022-10-10T13:13:58.242Z,2.45
2022-10-10T13:16:33.749Z,2.90
2022-10-10T13:19:01.474Z,2.50
2022-10-10T13:21:34.160Z,2.90
2022-10-10T13:24:06.091Z,2.65
2022-10-10T13:26:37.298Z,2.60
2022-10-10T13:29:27.616Z,2.42
2022-10-10T13:32:00.126Z,2.53
2022-10-10T13:34:32.529Z,2.30
2022-10-10T13:37:02.325Z,2.53
2022-10-10T13:39:32.360Z,2.17
2022-10-10T13:42:00.312Z,2.50
2022-10-10T13:44:33.194Z,2.63
2022-10-10T13:47:38.694Z,2.78
2022-10-10T13:50:31.922Z,2.42
2022-10-10T13:53:26.808Z,2.50
2022-10-10T13:55:59.826Z,2.55
2022-10-10T13:58:31.150Z,2.70
2022-10-10T14:01:01.198Z,2.50
2022-10-10T14:03:31.184Z,3.08
2022-10-10T14:05:58.728Z,2.17
2022-10-10T14:08:30.660Z,2.50
2022-10-10T14:10:57.950Z,2.67
2022-10-10T14:13:25.624Z,2.25
2022-10-10T14:15:53.226Z,2.75
2022-10-10T14:18:22.866Z,2.60
2022-10-10T14:20:50.717Z,2.10
2022-10-10T14:23:18.087Z,2.35
2022-10-10T14:25:48.402Z,2.55
2022-10-10T14:28:19.168Z,2.60
2022-10-10T14:30:46.474Z,2.10
2022-10-10T14:33:16.429Z,2.30
2022-10-10T14:35:45.205Z,2.55
2022-10-10T14:38:14.060Z,2.55
2022-10-10T14:40:47.106Z,2.38
2022-10-10T14:43:14.486Z,2.20
2022-10-10T14:45:41.577Z,1.90
2022-10-10T14:48:11.142Z,1.92
2022-10-10T14:50:44.117Z,2.45
2022-10-10T14:53:11.309Z,2.50
2022-10-10T14:55:43.126Z,2.20
2022-10-10T14:58:19.482Z,2.13
2022-10-10T15:00:47.420Z,2.17
2022-10-10T15:03:14.745Z,2.17
2022-10-10T15:05:42.217Z,2.15
2022-10-10T15:08:14.280Z,2.30
2022-10-10T15:10:42.564Z,2.10
2022-10-10T15:13:13.957Z,2.22
2022-10-10T15:15:41.664Z,2.20
2022-10-10T15:18:26.649Z,4.18
2022-10-10T15:20:56.574Z,3.20
2022-10-10T15:23:23.826Z,3.88
2022-10-10T15:25:50.983Z,3.10
2022-10-10T15:28:18.214Z,3.47
2022-10-10T15:30:46.301Z,3.10
2022-10-10T15:33:13.482Z,3.70
2022-10-10T15:36:07.428Z,3.15
2022-10-10T15:38:28.647Z,2.85
2022-10-10T15:41:05.572Z,2.95
2022-10-10T15:43:47.062Z,2.97
2022-10-10T15:46:14.331Z,2.97
2022-10-10T15:48:41.499Z,2.35
2022-10-10T15:51:09.006Z,3.58
2022-10-10T15:53:37.209Z,4.10
2022-10-10T15:56:10.284Z,3.10
2022-10-10T15:58:39.063Z,3.30
2022-10-10T16:01:14.605Z,3.92
2022-10-10T16:03:42.211Z,3.75
2022-10-10T16:06:10.831Z,3.22
2022-10-10T16:08:41.478Z,3.13
2022-10-10T16:11:13.372Z,3.05
2022-10-10T16:13:41.513Z,4.57
2022-10-10T16:16:10.962Z,3.42
2022-10-10T16:18:40.434Z,3.13
2022-10-10T16:21:11.104Z,3.30
2022-10-10T16:23:39.258Z,3.83
2022-10-10T16:26:08.933Z,3.33
2022-10-10T16:28:36.288Z,2.90
2022-10-10T16:31:05.775Z,3.47
2022-10-10T16:33:34.648Z,4.32
2022-10-10T16:36:07.353Z,3.67
2022-10-10T16:38:34.512Z,3.20
2022-10-10T16:41:04.522Z,3.30
2022-10-10T16:43:32.422Z,3.38
2022-10-10T16:46:03.890Z,3.50
2022-10-10T16:48:31.653Z,4.35
2022-10-10T16:51:03.597Z,3.80
2022-10-10T16:53:32.204Z,5.20
2022-10-10T16:56:01.491Z,10.38
2022-10-10T16:58:29.580Z,7.93
2022-10-10T17:00:56.975Z,6.32
2022-10-10T17:03:25.223Z,6.72
2022-10-10T17:06:06.737Z,5.60
2022-10-10T17:08:33.900Z,6.18
2022-10-10T17:11:01.427Z,7.65
2022-10-10T17:13:28.998Z,11.52
2022-10-10T17:15:57.232Z,11.13
2022-10-10T17:18:26.154Z,12.60
2022-10-10T17:20:53.261Z,13.27
2022-10-10T17:23:20.797Z,14.80
2022-10-10T17:25:47.968Z,14.90
2022-10-10T17:28:16.053Z,13.80
2022-10-10T17:30:48.504Z,9.63
2022-10-10T17:33:17.702Z,6.55
2022-10-10T17:35:48.264Z,4.85
2022-10-10T17:38:38.520Z,5.70
2022-10-10T17:41:04.403Z,4.55
2022-10-10T17:43:33.440Z,6.43
2022-10-10T17:46:32.710Z,11.48
2022-10-10T17:48:53.398Z,10.90
2022-10-10T17:51:23.843Z,14.50
2022-10-10T17:53:51.367Z,13.93
2022-10-10T17:56:21.450Z,10.27
2022-10-10T17:58:50.221Z,9.63
2022-10-10T18:01:19.502Z,8.77
2022-10-10T18:03:48.086Z,9.68
2022-10-10T18:06:20.606Z,9.70
2022-10-10T18:08:49.766Z,8.23
2022-10-10T18:11:23.595Z,6.80
2022-10-10T18:13:52.021Z,8.63
2022-10-10T18:16:22.393Z,8.60
2022-10-10T18:18:51.964Z,8.23
2022-10-10T18:21:21.708Z,7.80
2022-10-10T18:23:49.105Z,10.35
2022-10-10T18:26:17.894Z,8.40
2022-10-10T18:28:45.290Z,8.70
2022-10-10T18:31:15.566Z,10.90
2022-10-10T18:33:46.767Z,17.13
2022-10-10T18:36:16.393Z,13.13
2022-10-10T18:38:43.559Z,12.25
2022-10-10T18:41:13.833Z,13.48
2022-10-10T18:43:42.537Z,15.50
2022-10-10T18:46:11.758Z,14.35
2022-10-10T18:48:39.214Z,11.88
2022-10-10T18:51:09.665Z,8.35
2022-10-10T18:53:44.949Z,9.57
2022-10-10T18:56:14.625Z,8.15
2022-10-10T18:58:42.121Z,7.82
2022-10-10T19:01:12.625Z,8.23
2022-10-10T19:03:41.336Z,11.40
2022-10-10T19:06:11.709Z,8.50
2022-10-10T19:08:39.891Z,8.60
2022-10-10T19:11:08.653Z,10.73
2022-10-10T19:13:35.821Z,11.43
2022-10-10T19:16:04.920Z,10.98
2022-10-10T19:18:32.254Z,11.40
2022-10-10T19:21:00.890Z,11.63
2022-10-10T19:23:28.428Z,12.43
2022-10-10T19:25:55.869Z,11.07
2022-10-10T19:28:23.181Z,10.88
2022-10-10T19:30:50.325Z,9.02
2022-10-10T19:33:17.466Z,8.07
2022-10-10T19:35:52.104Z,8.30
2022-10-10T19:38:19.817Z,8.18
2022-10-10T19:40:47.983Z,8.07
2022-10-10T19:43:18.683Z,7.97
2022-10-10T19:45:48.293Z,7.03
2022-10-10T19:48:16.071Z,8.10
2022-10-10T19:50:44.352Z,8.10
2022-10-10T19:53:14.648Z,8.88
2022-10-10T19:55:41.875Z,7.90
2022-10-10T19:58:09.054Z,8.85
2022-10-10T20:00:39.308Z,7.15
2022-10-10T20:03:06.440Z,17.70
2022-10-10T20:05:33.576Z,17.70
2022-10-10T20:08:00.730Z,21.02
2022-10-10T20:10:27.943Z,17.88
2022-10-10T20:12:55.266Z,13.73
2022-10-10T20:15:22.459Z,13.82
2022-10-10T20:17:49.822Z,12.82
2022-10-10T20:20:17.126Z,12.25
2022-10-10T20:22:44.653Z,12.13
2022-10-10T20:25:12.063Z,12.25
2022-10-10T20:27:39.352Z,12.40
2022-10-10T20:30:07.148Z,11.40
2022-10-10T20:32:34.356Z,12.23
2022-10-10T20:35:02.421Z,12.80
2022-10-10T20:37:29.569Z,12.50
2022-10-10T20:39:56.746Z,9.50
2022-10-10T20:42:23.944Z,7.72
2022-10-10T20:44:51.130Z,8.13
2022-10-10T20:47:18.305Z,7.63
2022-10-10T20:49:45.454Z,8.95
2022-10-10T20:52:12.631Z,8.27
2022-10-10T20:54:39.899Z,7.72
2022-10-10T20:57:07.155Z,8.07
2022-10-10T20:59:34.293Z,6.68
